createdAt,value
2024-01-15T00:02:16.091Z,4.68
2024-01-15T00:04:44.048Z,4.79
2024-01-15T00:07:12.745Z,4.94
2024-01-15T00:09:41.409Z,4.88
2024-01-15T00:12:09.181Z,4.70
2024-01-15T00:14:36.864Z,4.74
2024-01-15T00:17:04.608Z,4.76
2024-01-15T00:19:33.654Z,4.70
2024-01-15T00:22:01.487Z,4.61
2024-01-15T00:24:30.120Z,4.49
2024-01-15T00:26:58.178Z,4.62
2024-01-15T00:29:25.743Z,4.63
2024-01-15T00:31:54.759Z,4.62
2024-01-15T00:34:23.719Z,4.66
2024-01-15T00:36:51.418Z,4.61
2024-01-15T00:39:19.194Z,4.61
2024-01-15T00:41:46.953Z,4.43
2024-01-15T00:44:14.523Z,4.56
2024-01-15T00:46:46.792Z,4.42
2024-01-15T00:49:15.029Z,4.54
2024-01-15T00:51:42.910Z,4.61
2024-01-15T00:54:10.491Z,4.73
2024-01-15T00:56:39.855Z,4.78
2024-01-15T00:59:07.536Z,4.79
2024-01-15T01:01:35.249Z,4.69
2024-01-15T01:04:03.011Z,4.79
2024-01-15T01:06:33.486Z,4.82
2024-01-15T01:09:01.951Z,4.83
2024-01-15T01:11:29.732Z,4.96
2024-01-15T01:13:57.968Z,4.93
2024-01-15T01:16:25.987Z,4.95
2024-01-15T01:18:54.525Z,5.00
2024-01-15T01:21:22.340Z,5.04
2024-01-15T01:23:50.030Z,5.08
2024-01-15T01:26:19.063Z,4.88
2024-01-15T01:28:47.288Z,4.82
2024-01-15T01:31:15.008Z,4.82
2024-01-15T01:33:42.785Z,4.80
2024-01-15T01:36:11.078Z,4.84
2024-01-15T01:38:39.341Z,4.91
2024-01-15T01:41:07.034Z,4.84
2024-01-15T01:43:34.748Z,4.83
2024-01-15T01:46:04.083Z,4.69
2024-01-15T01:48:32.962Z,4.84
2024-01-15T01:51:03.316Z,5.05
2024-01-15T01:53:34.161Z,5.24
2024-01-15T01:56:02.593Z,5.23
2024-01-15T01:58:31.733Z,4.90
2024-01-15T02:01:00.419Z,4.77
2024-01-15T02:03:29.776Z,4.76
2024-01-15T02:05:58.016Z,4.86
2024-01-15T02:08:27.209Z,4.87
2024-01-15T02:10:55.179Z,4.90
2024-01-15T02:13:23.088Z,4.87
2024-01-15T02:15:50.865Z,4.68
2024-01-15T02:18:18.785Z,4.72
2024-01-15T02:20:47.741Z,4.82
2024-01-15T02:23:16.444Z,4.87
2024-01-15T02:25:46.483Z,4.81
2024-01-15T02:28:16.770Z,4.51
2024-01-15T02:30:45.184Z,4.30
2024-01-15T02:33:13.720Z,4.39
2024-01-15T02:35:42.103Z,4.45
2024-01-15T02:38:10.775Z,4.53
2024-01-15T02:40:40.409Z,4.53
2024-01-15T02:43:08.185Z,4.41
2024-01-15T02:45:35.972Z,4.32
2024-01-15T02:48:03.900Z,4.50
2024-01-15T02:50:32.736Z,4.61
2024-01-15T02:53:00.446Z,4.36
2024-01-15T02:55:30.701Z,4.03
2024-01-15T02:57:59.643Z,4.17
2024-01-15T03:00:27.205Z,4.52
2024-01-15T03:02:55.783Z,4.67
2024-01-15T03:05:23.828Z,4.63
2024-01-15T03:07:51.456Z,4.71
2024-01-15T03:10:19.587Z,4.26
2024-01-15T03:12:47.166Z,4.01
2024-01-15T03:15:14.881Z,4.30
2024-01-15T03:17:44.240Z,4.40
2024-01-15T03:20:12.757Z,4.53
2024-01-15T03:22:40.759Z,4.54
2024-01-15T03:25:09.192Z,4.54
2024-01-15T03:27:37.136Z,4.50
2024-01-15T03:30:05.241Z,4.37
2024-01-15T03:32:33.862Z,4.52
2024-01-15T03:35:01.910Z,4.54
2024-01-15T03:37:29.679Z,4.47
2024-01-15T03:39:58.143Z,4.50
2024-01-15T03:42:25.896Z,4.19
2024-01-15T03:44:53.573Z,4.22
2024-01-15T03:47:21.211Z,4.26
2024-01-15T03:49:49.017Z,4.30
2024-01-15T03:52:16.745Z,4.26
2024-01-15T03:54:44.491Z,4.30
2024-01-15T03:57:12.067Z,4.39
2024-01-15T03:59:42.913Z,4.37
2024-01-15T04:02:10.497Z,4.37
2024-01-15T04:04:42.235Z,4.50
2024-01-15T04:07:10.985Z,4.46
2024-01-15T04:09:39.137Z,4.47
2024-01-15T04:12:06.957Z,4.52
2024-01-15T04:14:34.616Z,4.42
2024-01-15T04:17:02.328Z,4.35
2024-01-15T04:19:30.045Z,4.42
2024-01-15T04:21:57.740Z,4.39
2024-01-15T04:24:25.357Z,4.44
2024-01-15T04:26:52.996Z,4.42
2024-01-15T04:29:20.667Z,4.46
2024-01-15T04:31:48.470Z,4.39
2024-01-15T04:34:16.089Z,4.52
2024-01-15T04:36:44.347Z,4.53
2024-01-15T04:39:13.034Z,4.51
2024-01-15T04:41:40.747Z,4.47
2024-01-15T04:44:08.315Z,4.62
2024-01-15T04:46:36.162Z,4.67
2024-01-15T04:49:03.806Z,4.92
2024-01-15T04:51:31.838Z,4.87
2024-01-15T04:53:59.473Z,4.88
2024-01-15T04:56:27.983Z,4.73
2024-01-15T04:58:55.566Z,4.82
2024-01-15T05:01:23.730Z,4.79
2024-01-15T05:03:51.571Z,4.70
2024-01-15T05:06:19.739Z,4.58
2024-01-15T05:08:47.315Z,4.59
2024-01-15T05:11:14.904Z,4.49
2024-01-15T05:13:42.663Z,4.55
2024-01-15T05:16:10.271Z,4.67
2024-01-15T05:18:41.184Z,4.69
2024-01-15T05:21:09.955Z,4.71
2024-01-15T05:23:37.980Z,4.75
2024-01-15T05:26:05.537Z,4.68
2024-01-15T05:28:33.249Z,4.70
2024-01-15T05:31:01.185Z,4.75
2024-01-15T05:33:29.001Z,4.88
2024-01-15T05:35:56.851Z,5.01
2024-01-15T05:38:24.446Z,5.06
2024-01-15T05:40:51.979Z,5.20
2024-01-15T05:43:19.724Z,5.11
2024-01-15T05:45:47.481Z,5.06
2024-01-15T05:48:15.334Z,4.97
2024-01-15T05:50:43.255Z,5.15
2024-01-15T05:53:11.355Z,5.11
2024-01-15T05:55:39.669Z,5.06
2024-01-15T05:58:07.516Z,5.17
2024-01-15T06:00:36.788Z,5.10
2024-01-15T06:03:04.509Z,5.25
2024-01-15T06:05:32.240Z,5.20
2024-01-15T06:07:59.797Z,5.10
2024-01-15T06:10:27.536Z,5.09
2024-01-15T06:12:55.279Z,5.19
2024-01-15T06:15:23.361Z,5.16
2024-01-15T06:17:51.136Z,5.06
2024-01-15T06:20:19.169Z,4.97
2024-01-15T06:22:46.794Z,4.71
2024-01-15T06:25:14.722Z,4.43
2024-01-15T06:27:42.395Z,4.43
2024-01-15T06:30:10.692Z,4.64
2024-01-15T06:32:38.631Z,4.51
2024-01-15T06:35:07.111Z,4.55
2024-01-15T06:37:35.114Z,4.68
2024-01-15T06:40:02.760Z,4.74
2024-01-15T06:42:30.747Z,4.68
2024-01-15T06:44:58.385Z,4.77
2024-01-15T06:47:26.046Z,4.92
2024-01-15T06:49:53.971Z,4.76
2024-01-15T06:52:21.728Z,4.62
2024-01-15T06:54:49.952Z,4.56
2024-01-15T06:57:17.913Z,4.52
2024-01-15T06:59:45.620Z,4.67
2024-01-15T07:02:13.705Z,4.62
2024-01-15T07:04:43.593Z,4.69
2024-01-15T07:07:11.598Z,4.78
2024-01-15T07:09:40.209Z,4.83
2024-01-15T07:12:07.933Z,4.94
2024-01-15T07:14:36.738Z,4.98
2024-01-15T07:17:04.442Z,4.80
2024-01-15T07:19:32.094Z,4.98
2024-01-15T07:22:00.393Z,5.03
2024-01-15T07:24:28.195Z,5.06
2024-01-15T07:26:56.897Z,5.17
2024-01-15T07:29:24.562Z,5.33
2024-01-15T07:31:52.838Z,5.47
2024-01-15T07:34:20.890Z,5.39
2024-01-15T07:36:49.592Z,5.45
2024-01-15T07:39:18.202Z,5.08
2024-01-15T07:41:46.235Z,5.00
2024-01-15T07:44:13.879Z,5.21
2024-01-15T07:46:45.127Z,5.23
2024-01-15T07:49:12.994Z,5.25
2024-01-15T07:51:41.826Z,5.50
2024-01-15T07:54:10.426Z,4.96
2024-01-15T07:57:01.193Z,4.88
2024-01-15T07:59:29.001Z,4.61
2024-01-15T08:01:57.737Z,4.59
2024-01-15T08:04:26.293Z,4.62
2024-01-15T08:06:54.276Z,4.75
2024-01-15T08:09:22.397Z,4.59
2024-01-15T08:11:50.728Z,4.96
2024-01-15T08:14:19.166Z,5.40
2024-01-15T08:16:47.155Z,5.55
2024-01-15T08:19:15.701Z,5.35
2024-01-15T08:21:44.103Z,5.31
2024-01-15T08:24:11.805Z,5.69
2024-01-15T08:26:39.533Z,5.94
2024-01-15T08:29:08.185Z,5.80
2024-01-15T08:31:36.187Z,5.99
2024-01-15T08:34:04.058Z,6.14
2024-01-15T08:36:33.076Z,6.28
2024-01-15T08:39:00.700Z,6.33
2024-01-15T08:41:28.350Z,6.46
2024-01-15T08:43:56.255Z,6.61
2024-01-15T08:46:24.127Z,6.89
2024-01-15T08:48:52.379Z,6.57
2024-01-15T08:51:20.139Z,6.91
2024-01-15T08:53:47.971Z,6.76
2024-01-15T08:56:16.020Z,7.28
2024-01-15T08:58:43.720Z,7.63
2024-01-15T09:01:11.900Z,7.96
2024-01-15T09:03:42.961Z,8.40
2024-01-15T09:06:11.581Z,8.32
2024-01-15T09:08:40.188Z,7.84
2024-01-15T09:11:07.749Z,8.60
2024-01-15T09:13:35.843Z,8.69
2024-01-15T09:16:04.749Z,8.90
2024-01-15T09:18:33.770Z,8.25
2024-01-15T09:21:01.381Z,8.37
2024-01-15T09:23:29.821Z,8.91
2024-01-15T09:25:58.046Z,9.71
2024-01-15T09:28:26.067Z,10.41
2024-01-15T09:30:55.772Z,10.66
2024-01-15T09:33:23.626Z,10.02
2024-01-15T09:35:51.399Z,9.99
2024-01-15T09:38:20.389Z,10.44
2024-01-15T09:40:48.497Z,10.26
2024-01-15T09:43:17.229Z,9.88
2024-01-15T09:45:45.864Z,10.28
2024-01-15T09:48:14.205Z,10.55
2024-01-15T09:50:41.986Z,10.54
2024-01-15T09:53:10.707Z,11.12
2024-01-15T09:55:41.082Z,11.00
2024-01-15T09:58:09.068Z,11.49
2024-01-15T10:00:40.315Z,11.18
2024-01-15T10:03:09.432Z,10.46
2024-01-15T10:05:37.115Z,10.20
2024-01-15T10:08:06.752Z,10.31
2024-01-15T10:10:37.772Z,11.28
2024-01-15T10:13:06.029Z,10.97
2024-01-15T10:15:38.242Z,10.92
2024-01-15T10:18:06.814Z,11.47
2024-01-15T10:20:34.537Z,11.80
2024-01-15T10:23:02.130Z,10.91
2024-01-15T10:25:30.518Z,11.04
2024-01-15T10:28:02.885Z,10.51
2024-01-15T10:30:31.516Z,11.00
2024-01-15T10:33:04.066Z,11.50
2024-01-15T10:35:35.750Z,12.00
2024-01-15T10:38:04.257Z,11.54
2024-01-15T10:40:32.714Z,12.63
2024-01-15T10:43:00.356Z,13.30
2024-01-15T10:45:28.651Z,12.86
2024-01-15T10:48:00.368Z,12.58
2024-01-15T10:50:30.700Z,11.96
2024-01-15T10:52:59.178Z,11.88
2024-01-15T10:55:29.106Z,11.85
2024-01-15T10:57:59.190Z,11.83
2024-01-15T11:00:29.131Z,11.65
2024-01-15T11:02:57.486Z,11.02
2024-01-15T11:05:25.257Z,11.06
2024-01-15T11:07:57.582Z,9.40
2024-01-15T11:10:47.854Z,9.46
2024-01-15T11:13:21.503Z,8.96
2024-01-15T11:16:00.985Z,9.71
2024-01-15T11:18:53.115Z,9.56
2024-01-15T11:21:23.145Z,8.94
2024-01-15T11:23:54.758Z,9.09
2024-01-15T11:26:32.455Z,9.29
2024-01-15T11:29:21.588Z,9.73
2024-01-15T11:31:49.610Z,10.06
2024-01-15T11:34:17.569Z,9.95
2024-01-15T11:36:54.725Z,9.56
2024-01-15T11:39:28.372Z,9.72
2024-01-15T11:41:56.685Z,9.87
2024-01-15T11:44:25.068Z,10.27
2024-01-15T11:47:13.011Z,10.41
2024-01-15T11:50:06.332Z,10.33
2024-01-15T11:52:36.417Z,10.54
2024-01-15T11:55:20.721Z,9.72
2024-01-15T11:57:52.321Z,10.28
2024-01-15T12:00:20.769Z,10.83
2024-01-15T12:02:52.156Z,11.46
2024-01-15T12:05:21.440Z,11.49
2024-01-15T12:07:51.398Z,12.27
2024-01-15T12:10:21.331Z,12.95
2024-01-15T12:12:58.521Z,12.53
2024-01-15T12:15:29.800Z,12.89
2024-01-15T12:18:00.001Z,12.66
2024-01-15T12:20:28.732Z,11.92
2024-01-15T12:23:01.698Z,12.61
2024-01-15T12:25:33.178Z,11.91
2024-01-15T12:28:02.426Z,11.78
2024-01-15T12:30:34.985Z,12.33
2024-01-15T12:33:05.417Z,13.01
2024-01-15T12:35:35.609Z,13.93
2024-01-15T12:38:04.278Z,14.15
2024-01-15T12:40:34.432Z,13.92
2024-01-15T12:43:02.999Z,13.23
2024-01-15T12:45:31.487Z,12.99
2024-01-15T12:48:01.869Z,13.89
2024-01-15T12:50:29.981Z,13.72
2024-01-15T12:52:57.671Z,13.52
2024-01-15T12:55:25.333Z,12.33
2024-01-15T12:57:56.746Z,11.68
2024-01-15T13:00:27.523Z,12.02
2024-01-15T13:02:56.327Z,13.12
2024-01-15T13:05:25.393Z,13.30
2024-01-15T13:07:54.111Z,13.31
2024-01-15T13:10:24.881Z,13.69
2024-01-15T13:12:53.833Z,13.27
2024-01-15T13:15:21.563Z,13.58
2024-01-15T13:17:49.183Z,14.61
2024-01-15T13:20:17.144Z,13.86
2024-01-15T13:22:45.926Z,15.25
2024-01-15T13:25:14.261Z,15.04
2024-01-15T13:27:43.112Z,14.81
2024-01-15T13:30:12.395Z,13.42
2024-01-15T13:32:40.117Z,12.94
2024-01-15T13:35:11.315Z,13.54
2024-01-15T13:37:39.532Z,13.18
2024-01-15T13:40:10.854Z,14.18
2024-01-15T13:42:39.597Z,12.61
2024-01-15T13:45:08.816Z,13.71
2024-01-15T13:47:38.795Z,13.53
2024-01-15T13:50:07.830Z,13.01
2024-01-15T13:52:36.145Z,13.89
2024-01-15T13:55:04.647Z,12.35
2024-01-15T13:57:32.673Z,13.40
2024-01-15T14:00:01.332Z,12.03
2024-01-15T14:02:28.940Z,12.04
2024-01-15T14:04:56.516Z,13.14
2024-01-15T14:07:25.106Z,13.59
2024-01-15T14:09:53.868Z,14.44
2024-01-15T14:12:22.842Z,14.61
2024-01-15T14:14:50.665Z,14.02
2024-01-15T14:17:19.071Z,13.71
2024-01-15T14:19:46.673Z,12.61
2024-01-15T14:22:14.724Z,13.40
2024-01-15T14:24:42.770Z,13.66
2024-01-15T14:27:11.196Z,14.74
2024-01-15T14:29:39.502Z,14.71
2024-01-15T14:32:07.068Z,14.03
2024-01-15T14:34:37.468Z,15.23
2024-01-15T14:37:05.264Z,13.19
2024-01-15T14:39:35.595Z,14.52
2024-01-15T14:42:03.449Z,14.19
2024-01-15T14:44:31.157Z,13.20
2024-01-15T14:47:00.046Z,12.40
2024-01-15T14:49:28.244Z,11.69
2024-01-15T14:51:56.201Z,12.94
2024-01-15T14:54:24.947Z,12.31
2024-01-15T14:56:53.785Z,11.27
2024-01-15T14:59:21.452Z,11.64
2024-01-15T15:01:49.615Z,11.15
2024-01-15T15:04:17.490Z,10.66
2024-01-15T15:06:45.356Z,9.36
2024-01-15T15:09:14.519Z,9.32
2024-01-15T15:11:42.154Z,8.72
2024-01-15T15:14:09.690Z,8.73
2024-01-15T15:16:38.547Z,8.77
2024-01-15T15:19:06.360Z,8.63
2024-01-15T15:21:34.120Z,8.67
2024-01-15T15:24:01.994Z,8.99
2024-01-15T15:26:30.282Z,8.97
2024-01-15T15:28:58.289Z,8.71
2024-01-15T15:31:26.161Z,8.54
2024-01-15T15:33:54.313Z,8.74
2024-01-15T15:36:22.375Z,8.66
2024-01-15T15:38:50.068Z,8.69
2024-01-15T15:41:17.631Z,8.56
2024-01-15T15:43:45.751Z,8.41
2024-01-15T15:46:13.861Z,8.44
2024-01-15T15:48:42.063Z,8.36
2024-01-15T15:51:10.377Z,8.27
2024-01-15T15:53:39.003Z,8.00
2024-01-15T15:56:07.921Z,8.01
2024-01-15T15:58:36.326Z,7.95
2024-01-15T16:01:05.271Z,7.72
2024-01-15T16:03:33.047Z,7.53
2024-01-15T16:06:01.480Z,7.45
2024-01-15T16:08:29.377Z,7.60
2024-01-15T16:10:57.007Z,7.54
2024-01-15T16:13:26.800Z,7.57
2024-01-15T16:23:08.506Z,7.46
2024-01-15T16:23:22.072Z,7.44
2024-01-15T16:23:37.055Z,7.29
2024-01-15T16:26:50.859Z,7.22
2024-01-15T16:29:20.549Z,7.16
2024-01-15T16:31:48.654Z,7.11
2024-01-15T16:34:16.940Z,6.98
2024-01-15T16:36:44.623Z,7.02
2024-01-15T16:39:12.302Z,6.80
2024-01-15T16:41:40.412Z,6.68
2024-01-15T16:44:08.114Z,6.69
2024-01-15T16:46:35.911Z,6.57
2024-01-15T16:49:09.363Z,6.43
2024-01-15T16:51:37.523Z,6.47
2024-01-15T16:54:05.371Z,6.44
2024-01-15T16:56:32.964Z,6.27
2024-01-15T16:59:01.107Z,6.49
2024-01-15T17:01:28.696Z,6.56
2024-01-15T17:03:57.083Z,6.41
2024-01-15T17:06:24.684Z,6.50
2024-01-15T17:08:52.709Z,6.33
2024-01-15T17:11:20.338Z,6.22
2024-01-15T17:13:48.569Z,6.12
2024-01-15T17:16:16.587Z,6.22
2024-01-15T17:18:45.986Z,6.09
2024-01-15T17:21:13.744Z,6.01
2024-01-15T17:23:41.405Z,5.94
2024-01-15T17:26:09.402Z,5.86
2024-01-15T17:28:37.037Z,5.82
2024-01-15T17:31:04.739Z,5.81
2024-01-15T17:33:33.694Z,5.84
2024-01-15T17:36:02.430Z,5.90
2024-01-15T17:38:30.528Z,6.00
2024-01-15T17:40:59.174Z,6.04
2024-01-15T17:43:27.334Z,6.01
2024-01-15T17:45:56.568Z,6.09
2024-01-15T17:48:24.711Z,5.94
2024-01-15T17:50:53.089Z,5.75
2024-01-15T17:53:21.817Z,5.70
2024-01-15T17:55:50.476Z,5.73
2024-01-15T17:58:18.563Z,5.92
2024-01-15T18:00:46.515Z,5.93
2024-01-15T18:03:15.664Z,6.03
2024-01-15T18:05:43.578Z,6.02
2024-01-15T18:08:13.430Z,5.93
2024-01-15T18:10:41.870Z,5.85
2024-01-15T18:13:11.564Z,5.73
2024-01-15T18:15:41.355Z,5.75
2024-01-15T18:18:09.047Z,5.70
2024-01-15T18:20:37.554Z,5.65
2024-01-15T18:23:05.389Z,5.68
2024-01-15T18:25:33.763Z,5.61
2024-01-15T18:28:01.468Z,5.49
2024-01-15T18:30:28.992Z,5.69
2024-01-15T18:32:56.691Z,5.72
2024-01-15T18:35:26.974Z,5.60
2024-01-15T18:37:54.817Z,5.45
2024-01-15T18:40:23.519Z,5.58
2024-01-15T18:42:51.237Z,5.73
2024-01-15T18:45:18.950Z,5.56
2024-01-15T18:47:47.179Z,5.56
2024-01-15T18:50:15.863Z,5.45
2024-01-15T18:52:43.697Z,5.29
2024-01-15T18:55:14.589Z,5.10
2024-01-15T18:57:42.541Z,5.09
2024-01-15T19:00:12.063Z,5.01
2024-01-15T19:02:39.880Z,4.83
2024-01-15T19:05:08.483Z,4.89
2024-01-15T19:07:37.544Z,4.85
2024-01-15T19:10:06.407Z,4.95
2024-01-15T19:12:34.170Z,5.00
2024-01-15T19:15:03.112Z,5.03
2024-01-15T19:17:31.807Z,4.99
2024-01-15T19:19:59.449Z,4.97
2024-01-15T19:22:28.649Z,5.03
2024-01-15T19:24:56.946Z,5.00
2024-01-15T19:27:24.679Z,4.80
2024-01-15T19:29:52.683Z,4.82
2024-01-15T19:32:20.659Z,4.90
2024-01-15T19:34:48.242Z,4.78
2024-01-15T19:37:15.943Z,4.70
2024-01-15T19:39:43.642Z,4.83
2024-01-15T19:42:11.916Z,4.82
2024-01-15T19:44:39.482Z,5.40
2024-01-15T19:47:07.085Z,4.98
2024-01-15T19:49:35.495Z,5.07
2024-01-15T19:52:03.133Z,5.14
2024-01-15T19:54:30.795Z,4.96
2024-01-15T19:56:58.967Z,5.06
2024-01-15T19:59:27.070Z,5.05
2024-01-15T20:01:55.538Z,5.31
2024-01-15T20:04:23.702Z,5.49
2024-01-15T20:06:51.318Z,5.42
2024-01-15T20:09:19.873Z,5.62
2024-01-15T20:11:48.073Z,5.94
2024-01-15T20:14:16.445Z,6.07
2024-01-15T20:16:44.452Z,6.10
2024-01-15T20:19:13.219Z,6.30
2024-01-15T20:21:41.475Z,6.30
2024-01-15T20:24:09.100Z,5.93
2024-01-15T20:26:36.867Z,5.91
2024-01-15T20:29:04.464Z,6.01
2024-01-15T20:31:32.630Z,5.90
2024-01-15T20:34:00.442Z,6.07
2024-01-15T20:36:28.596Z,5.96
2024-01-15T20:38:56.350Z,5.82
2024-01-15T20:41:25.951Z,5.92
2024-01-15T20:43:54.199Z,6.06
2024-01-15T20:46:23.472Z,6.28
2024-01-15T20:48:51.404Z,6.28
2024-01-15T20:51:19.215Z,6.20
2024-01-15T20:53:49.618Z,6.23
2024-01-15T20:56:17.826Z,6.06
2024-01-15T20:58:45.957Z,6.25
2024-01-15T21:01:14.171Z,6.33
2024-01-15T21:03:41.916Z,6.33
2024-01-15T21:06:10.893Z,6.04
2024-01-15T21:08:41.293Z,5.83
2024-01-15T21:11:09.291Z,5.77
2024-01-15T21:13:36.922Z,5.93
2024-01-15T21:16:06.683Z,5.71
2024-01-15T21:18:35.552Z,5.82
2024-01-15T21:21:03.403Z,5.98
2024-01-15T21:23:32.638Z,5.72
2024-01-15T21:26:01.090Z,5.68
2024-01-15T21:28:31.203Z,5.83
2024-01-15T21:31:00.896Z,5.91
2024-01-15T21:33:38.032Z,6.01
2024-01-15T21:36:06.921Z,5.90
2024-01-15T21:38:35.452Z,5.62
2024-01-15T21:41:03.881Z,5.45
2024-01-15T21:43:32.223Z,5.27
2024-01-15T21:46:00.580Z,5.18
2024-01-15T21:48:28.941Z,5.32
2024-01-15T21:50:57.029Z,5.29
2024-01-15T21:53:25.262Z,4.95
2024-01-15T21:55:53.041Z,4.92
2024-01-15T21:58:21.390Z,5.14
2024-01-15T22:00:49.093Z,5.23
2024-01-15T22:03:18.399Z,5.15
2024-01-15T22:05:47.830Z,5.12
2024-01-15T22:08:16.048Z,4.97
2024-01-15T22:10:44.089Z,4.84
2024-01-15T22:13:12.098Z,4.78
2024-01-15T22:15:40.479Z,4.84
2024-01-15T22:18:08.398Z,4.85
2024-01-15T22:20:36.200Z,4.81
2024-01-15T22:23:04.108Z,4.71
2024-01-15T22:25:33.290Z,4.72
2024-01-15T22:28:00.953Z,4.71
2024-01-15T22:30:28.544Z,4.86
2024-01-15T22:32:56.342Z,4.95
2024-01-15T22:35:24.124Z,4.74
2024-01-15T22:37:52.683Z,4.87
2024-01-15T22:40:21.155Z,4.98
2024-01-15T22:42:49.091Z,4.97
2024-01-15T22:45:17.648Z,4.88
2024-01-15T22:47:45.812Z,4.86
2024-01-15T22:50:14.530Z,4.77
2024-01-15T22:52:42.232Z,4.82
2024-01-15T22:55:10.052Z,4.82
2024-01-15T22:57:37.729Z,4.70
2024-01-15T23:00:20.003Z,4.68
2024-01-15T23:02:48.690Z,4.55
2024-01-15T23:05:17.588Z,4.53
2024-01-15T23:07:45.608Z,4.53
2024-01-15T23:10:15.153Z,4.61
2024-01-15T23:12:43.253Z,4.74
2024-01-15T23:15:11.026Z,4.50
2024-01-15T23:17:39.243Z,4.52
2024-01-15T23:20:09.944Z,4.45
2024-01-15T23:22:40.990Z,4.39
2024-01-15T23:25:10.017Z,4.45
2024-01-15T23:27:38.313Z,4.49
2024-01-15T23:30:06.518Z,4.53
2024-01-15T23:32:34.166Z,4.51
2024-01-15T23:35:04.647Z,4.36
2024-01-15T23:37:32.320Z,4.46
2024-01-15T23:40:00.333Z,4.39
2024-01-15T23:42:28.124Z,4.29
2024-01-15T23:44:55.908Z,4.15
2024-01-15T23:47:24.800Z,4.04
2024-01-15T23:49:52.554Z,3.86
2024-01-15T23:52:20.232Z,3.80
2024-01-15T23:54:48.187Z,3.65
2024-01-15T23:57:15.854Z,3.55
2024-01-15T23:59:44.074Z,3.70
